• Join FlightAware (Why Join?)
  • Login
  • US Flag 
07:07AM EST


 

Airport Tracker/Info


-or-


 

Live Flight TrackerFlight Track Log ✈ JTA613 ✈ 17-Jul-2014 ✈ ROAH / OKA - ROIG / ISG

Flight Track Log - Related Links

Times and Time Zones

All times are in EDT time to prevent confusion due to time zone crossing. See the JTA613 flight status page for this flight to view local times or setup timezone preferences in your user account.

Time Position Orientation Groundspeed Altitude Reporting Facility
EDT Latitude Longitude Course Direction KTS MPH feet Rate Location/Type
01:32AM 26.0360 127.3369 240° Southwest  Level Estimated
01:33AM 25.9826 127.2340 240° Southwest  Level Estimated
01:34AM 25.9291 127.1313 240° Southwest  Level Estimated
01:35AM 25.8755 127.0287 240° Southwest  Level Estimated
01:36AM 25.8219 126.9261 240° Southwest  Level Estimated
01:37AM 25.7682 126.8237 240° Southwest  Level Estimated
01:38AM 25.7144 126.7214 240° Southwest  Level Estimated
01:39AM 25.6606 126.6191 240° Southwest  Level Estimated
01:40AM 25.6067 126.5169 240° Southwest  Level Estimated
01:41AM 25.5527 126.4149 240° Southwest  Level Estimated
01:42AM 25.4986 126.3129 240° Southwest  Level Estimated
01:43AM 25.4445 126.2110 240° Southwest  Level Estimated
01:44AM 25.3903 126.1092 240° Southwest  Level Estimated
01:45AM 25.3360 126.0075 239° Southwest  Level Estimated
01:46AM 25.2817 125.9059 239° Southwest  Level Estimated
01:47AM 25.2272 125.8043 239° Southwest  Level Estimated
01:48AM 25.1728 125.7029 239° Southwest  Level Estimated
01:49AM 25.1182 125.6016 239° Southwest  Level Estimated
01:50AM 25.0636 125.5003 239° Southwest  Level Estimated
01:51AM 25.0089 125.3991 239° Southwest  Level Estimated
01:52AM 24.9542 125.2981 239° Southwest  Level Estimated
01:53AM 24.8993 125.1971 239° Southwest  Level Estimated
01:54AM 24.8444 125.0962 239° Southwest  Level Estimated
01:55AM 24.7895 124.9954 239° Southwest  Level Estimated
01:56AM 24.7345 124.8947 239° Southwest  Level Estimated
01:57AM 24.6794 124.7941 239° Southwest  Level Estimated
01:58AM 24.6242 124.6935 239° Southwest  Level Estimated
01:59AM 24.5690 124.5931 239° Southwest  Level Estimated
02:00AM 24.5137 124.4927 239° Southwest  Level Estimated
02:01AM 24.4583 124.3924 239° Southwest  Level Estimated
02:02AM 24.4029 124.2923 239° Southwest  Level Estimated
02:03AM 24.3474 124.1922 239° Southwest  Level Estimated
02:04AM 24.3445 124.1870 239° Southwest  Level Estimated
02:05AM 24.3445 124.1870 North  Level Estimated
02:06AM 24.3445 124.1870 North  Level Estimated
02:07AM 24.3445 124.1870 North  Level Estimated
02:08AM 24.3445 124.1870 North  Level Estimated
02:09AM 24.3445 124.1870 North  Level Estimated
02:10AM 24.3445 124.1870 North  Level Estimated